createdAt,value
2023-04-07T00:00:31.739Z,3.90
2023-04-07T00:02:59.647Z,3.90
2023-04-07T00:05:27.532Z,4.30
2023-04-07T00:07:57.302Z,4.60
2023-04-07T00:10:25.771Z,4.20
2023-04-07T00:12:54.918Z,4.10
2023-04-07T00:15:22.730Z,4.20
2023-04-07T00:17:50.642Z,4.40
2023-04-07T00:20:18.476Z,4.60
2023-04-07T00:22:46.373Z,4.60
2023-04-07T00:25:14.181Z,4.20
2023-04-07T00:27:41.965Z,3.90
2023-04-07T00:30:11.653Z,4.00
2023-04-07T00:32:39.491Z,4.00
2023-04-07T00:35:08.015Z,4.00
2023-04-07T00:37:35.812Z,4.10
2023-04-07T00:40:04.131Z,4.10
2023-04-07T00:42:31.931Z,3.90
2023-04-07T00:44:59.750Z,3.60
2023-04-07T00:47:28.991Z,3.40
2023-04-07T00:49:56.804Z,3.40
2023-04-07T00:52:28.854Z,3.50
2023-04-07T00:54:56.859Z,3.40
2023-04-07T00:57:25.350Z,3.50
2023-04-07T00:59:53.202Z,3.80
2023-04-07T01:02:27.624Z,3.80
2023-04-07T01:05:08.033Z,4.00
2023-04-07T01:07:41.410Z,3.90
2023-04-07T01:10:12.367Z,3.80
2023-04-07T01:12:43.884Z,3.70
2023-04-07T01:15:13.303Z,3.80
2023-04-07T01:17:44.845Z,3.70
2023-04-07T01:20:15.194Z,3.60
2023-04-07T01:22:44.458Z,3.60
2023-04-07T01:25:28.519Z,3.60
2023-04-07T01:28:02.108Z,3.70
2023-04-07T01:30:32.531Z,3.70
2023-04-07T01:33:01.117Z,3.80
2023-04-07T01:35:30.409Z,3.80
2023-04-07T01:37:58.201Z,3.80
2023-04-07T01:40:25.993Z,3.90
2023-04-07T01:42:53.774Z,3.90
2023-04-07T01:45:21.688Z,4.00
2023-04-07T01:47:51.061Z,4.10
2023-04-07T01:50:18.870Z,3.90
2023-04-07T01:52:46.873Z,4.00
2023-04-07T01:55:14.635Z,4.20
2023-04-07T01:57:42.400Z,4.30
2023-04-07T02:00:11.088Z,4.40
2023-04-07T02:02:41.825Z,4.40
2023-04-07T02:05:13.487Z,4.60
2023-04-07T02:07:44.041Z,4.70
2023-04-07T02:10:12.824Z,4.70
2023-04-07T02:12:40.690Z,4.80
2023-04-07T02:15:09.808Z,4.90
2023-04-07T02:17:39.138Z,4.80
2023-04-07T02:20:07.780Z,4.90
2023-04-07T02:22:36.907Z,4.90
2023-04-07T02:25:04.959Z,5.00
2023-04-07T02:27:32.732Z,5.00
2023-04-07T02:30:00.669Z,4.90
2023-04-07T02:32:28.621Z,5.00
2023-04-07T02:34:56.651Z,5.00
2023-04-07T02:37:24.441Z,4.90
2023-04-07T02:39:53.543Z,4.90
2023-04-07T02:42:21.474Z,4.90
2023-04-07T02:44:49.217Z,5.00
2023-04-07T02:47:17.014Z,5.00
2023-04-07T02:49:44.761Z,5.00
2023-04-07T02:52:12.894Z,5.00
2023-04-07T02:54:40.641Z,5.00
2023-04-07T02:57:09.722Z,5.10
2023-04-07T02:59:37.465Z,5.10
2023-04-07T03:02:05.610Z,5.00
2023-04-07T03:04:33.469Z,5.00
2023-04-07T03:07:01.607Z,5.00
2023-04-07T03:09:29.390Z,5.00
2023-04-07T03:11:57.139Z,5.00
2023-04-07T03:14:26.468Z,5.00
2023-04-07T03:16:54.247Z,4.90
2023-04-07T03:19:22.023Z,5.00
2023-04-07T03:21:49.783Z,5.10
2023-04-07T03:24:18.310Z,5.10
2023-04-07T03:26:46.317Z,5.10
2023-04-07T03:29:14.256Z,4.80
2023-04-07T03:31:43.422Z,4.90
2023-04-07T03:34:11.292Z,5.00
2023-04-07T03:36:39.096Z,5.00
2023-04-07T03:39:06.946Z,5.10
2023-04-07T03:41:34.691Z,5.00
2023-04-07T03:44:02.486Z,5.20
2023-04-07T03:46:30.294Z,5.10
2023-04-07T03:48:59.421Z,5.10
2023-04-07T03:51:27.834Z,5.10
2023-04-07T03:53:55.638Z,5.10
2023-04-07T03:56:24.785Z,5.10
2023-04-07T03:58:52.573Z,5.20
2023-04-07T04:01:20.365Z,5.10
2023-04-07T04:03:48.243Z,5.10
2023-04-07T04:06:17.412Z,5.20
2023-04-07T04:08:45.184Z,5.10
2023-04-07T04:11:12.946Z,5.10
2023-04-07T04:13:40.697Z,5.10
2023-04-07T04:16:09.133Z,4.90
2023-04-07T04:18:36.912Z,4.90
2023-04-07T04:21:04.971Z,4.90
2023-04-07T04:23:34.111Z,4.80
2023-04-07T04:26:03.804Z,4.80
2023-04-07T04:28:31.743Z,4.80
2023-04-07T04:30:59.548Z,4.80
2023-04-07T04:33:27.659Z,4.90
2023-04-07T04:35:55.521Z,4.90
2023-04-07T04:38:23.368Z,4.90
2023-04-07T04:40:52.512Z,4.90
2023-04-07T04:43:20.386Z,4.90
2023-04-07T04:45:48.744Z,4.90
2023-04-07T04:48:17.338Z,4.90
2023-04-07T04:50:45.223Z,4.80
2023-04-07T04:53:13.079Z,4.80
2023-04-07T04:55:44.113Z,4.90
2023-04-07T04:58:13.288Z,4.90
2023-04-07T05:00:41.218Z,4.90
2023-04-07T05:03:09.278Z,4.80
2023-04-07T05:05:37.252Z,4.80
2023-04-07T05:08:05.557Z,4.80
2023-04-07T05:10:33.450Z,4.80
2023-04-07T05:13:01.293Z,4.70
2023-04-07T05:15:30.430Z,4.70
2023-04-07T05:17:58.340Z,4.60
2023-04-07T05:20:26.164Z,4.60
2023-04-07T05:22:53.940Z,4.50
2023-04-07T05:25:21.978Z,4.40
2023-04-07T05:27:49.845Z,4.50
2023-04-07T05:30:17.953Z,4.50
2023-04-07T05:32:47.120Z,4.30
2023-04-07T05:35:15.484Z,4.30
2023-04-07T05:37:43.278Z,4.30
2023-04-07T05:40:11.857Z,4.40
2023-04-07T05:42:39.638Z,4.50
2023-04-07T05:45:08.648Z,4.60
2023-04-07T05:47:36.538Z,4.60
2023-04-07T05:50:06.388Z,4.70
2023-04-07T05:52:34.188Z,4.80
2023-04-07T05:55:02.058Z,4.90
2023-04-07T05:57:29.862Z,4.90
2023-04-07T05:59:58.103Z,4.80
2023-04-07T06:02:26.128Z,4.80
2023-04-07T06:04:54.122Z,4.70
2023-04-07T06:07:23.233Z,4.60
2023-04-07T06:09:50.989Z,4.60
2023-04-07T06:12:18.824Z,4.60
2023-04-07T06:14:48.152Z,4.70
2023-04-07T06:17:15.939Z,4.70
2023-04-07T06:19:43.735Z,4.70
2023-04-07T06:22:11.486Z,4.70
2023-04-07T06:24:40.579Z,4.60
2023-04-07T06:27:08.601Z,4.70
2023-04-07T06:29:36.631Z,4.70
2023-04-07T06:32:04.441Z,4.60
2023-04-07T06:34:32.223Z,4.70
2023-04-07T06:37:00.164Z,4.70
2023-04-07T06:39:28.137Z,4.70
2023-04-07T06:41:57.778Z,4.90
2023-04-07T06:44:25.581Z,5.30
2023-04-07T06:46:55.385Z,5.40
2023-04-07T06:49:23.153Z,5.40
2023-04-07T06:51:50.910Z,6.20
2023-04-07T06:54:18.718Z,6.40
2023-04-07T06:56:46.648Z,6.10
2023-04-07T06:59:15.784Z,5.90
2023-04-07T07:01:43.784Z,5.80
2023-04-07T07:04:11.898Z,5.70
2023-04-07T07:06:39.833Z,5.80
2023-04-07T07:09:07.758Z,6.00
2023-04-07T07:11:35.886Z,6.10
2023-04-07T07:14:03.659Z,6.20
2023-04-07T07:16:32.823Z,6.10
2023-04-07T07:19:00.739Z,5.90
2023-04-07T07:21:28.569Z,5.90
2023-04-07T07:23:56.387Z,6.00
2023-04-07T07:26:24.155Z,6.10
2023-04-07T07:28:51.928Z,5.90
2023-04-07T07:31:19.716Z,5.90
2023-04-07T07:33:49.994Z,5.90
2023-04-07T07:36:18.089Z,6.00
2023-04-07T07:38:46.052Z,6.10
2023-04-07T07:41:13.935Z,6.20
2023-04-07T07:43:41.704Z,6.20
2023-04-07T07:46:09.531Z,6.20
2023-04-07T07:48:37.372Z,6.30
2023-04-07T07:51:07.054Z,6.50
2023-04-07T07:53:34.799Z,6.70
2023-04-07T07:56:02.564Z,7.00
2023-04-07T07:58:30.325Z,7.20
2023-04-07T08:00:58.107Z,7.30
2023-04-07T08:03:26.166Z,7.40
2023-04-07T08:05:54.041Z,7.50
2023-04-07T08:08:23.140Z,7.70
2023-04-07T08:10:50.902Z,7.90
2023-04-07T08:13:18.665Z,8.10
2023-04-07T08:15:46.476Z,8.20
2023-04-07T08:18:14.363Z,8.50
2023-04-07T08:20:42.150Z,8.70
2023-04-07T08:23:09.899Z,9.00
2023-04-07T08:25:39.958Z,9.30
2023-04-07T08:28:07.780Z,9.60
2023-04-07T08:30:35.811Z,9.90
2023-04-07T08:33:03.683Z,10.00
2023-04-07T08:35:31.530Z,10.00
2023-04-07T08:37:59.316Z,10.20
2023-04-07T08:40:27.077Z,10.60
2023-04-07T08:42:56.376Z,10.90
2023-04-07T08:45:24.134Z,11.40
2023-04-07T08:47:51.962Z,11.90
2023-04-07T08:50:19.779Z,11.90
2023-04-07T08:52:50.800Z,12.30
2023-04-07T08:55:18.573Z,12.50
2023-04-07T08:57:46.383Z,12.60
2023-04-07T09:00:16.141Z,12.80
2023-04-07T09:02:45.364Z,13.00
2023-04-07T09:05:14.560Z,12.80
2023-04-07T09:07:43.517Z,12.50
2023-04-07T09:10:11.420Z,12.60
2023-04-07T09:12:39.337Z,12.30
2023-04-07T09:15:08.679Z,12.20
2023-04-07T09:17:37.790Z,11.70
2023-04-07T09:20:06.333Z,12.30
2023-04-07T09:22:38.420Z,13.10
2023-04-07T09:25:17.082Z,13.40
2023-04-07T09:27:58.102Z,13.30
2023-04-07T09:30:25.936Z,12.70
2023-04-07T09:32:55.079Z,12.00
2023-04-07T09:35:23.917Z,11.60
2023-04-07T09:38:04.839Z,11.30
2023-04-07T09:40:32.661Z,11.20
2023-04-07T09:43:00.484Z,10.90
2023-04-07T09:45:34.502Z,11.10
2023-04-07T09:48:08.768Z,12.20
2023-04-07T09:50:37.382Z,12.50
2023-04-07T09:53:05.392Z,12.80
2023-04-07T09:55:34.963Z,13.30
2023-04-07T09:58:02.987Z,13.90
2023-04-07T10:00:30.757Z,14.40
2023-04-07T10:02:58.847Z,14.20
2023-04-07T10:05:28.548Z,14.60
2023-04-07T10:07:56.423Z,14.70
2023-04-07T10:10:24.185Z,14.70
2023-04-07T10:12:52.161Z,14.80
2023-04-07T10:15:19.955Z,15.50
2023-04-07T10:17:49.108Z,14.70
2023-04-07T10:20:17.872Z,14.50
2023-04-07T10:22:47.034Z,14.90
2023-04-07T10:25:16.190Z,15.10
2023-04-07T10:27:50.622Z,14.60
2023-04-07T10:30:19.907Z,14.60
2023-04-07T10:32:48.327Z,14.40
2023-04-07T10:35:17.172Z,14.40
2023-04-07T10:38:15.024Z,13.60
2023-04-07T10:40:43.634Z,13.60
2023-04-07T10:43:12.045Z,13.80
2023-04-07T10:45:59.320Z,13.00
2023-04-07T10:48:32.769Z,12.70
2023-04-07T10:51:15.306Z,12.80
2023-04-07T10:54:17.788Z,12.80
2023-04-07T10:57:10.667Z,13.20
2023-04-07T10:59:39.452Z,14.30
2023-04-07T11:02:33.667Z,14.80
2023-04-07T11:05:02.619Z,14.60
2023-04-07T11:07:54.959Z,15.00
2023-04-07T11:10:24.136Z,15.60
2023-04-07T11:13:12.820Z,15.60
2023-04-07T11:15:41.094Z,15.70
2023-04-07T11:18:21.544Z,15.60
2023-04-07T11:20:51.523Z,15.40
2023-04-07T11:23:20.172Z,14.70
2023-04-07T11:25:50.215Z,14.30
2023-04-07T11:28:18.133Z,13.90
2023-04-07T11:30:46.910Z,13.80
2023-04-07T11:33:18.911Z,13.60
2023-04-07T11:35:51.439Z,13.20
2023-04-07T11:38:19.564Z,13.20
2023-04-07T11:40:48.771Z,13.30
2023-04-07T11:43:17.773Z,13.40
2023-04-07T11:45:45.634Z,13.30
2023-04-07T11:48:30.240Z,13.10
2023-04-07T11:50:58.026Z,13.00
2023-04-07T11:53:29.420Z,13.00
2023-04-07T11:56:09.994Z,13.00
2023-04-07T11:58:38.600Z,12.60
2023-04-07T12:01:08.965Z,12.30
2023-04-07T12:03:37.758Z,11.90
2023-04-07T12:06:05.856Z,11.90
2023-04-07T12:08:40.856Z,12.10
2023-04-07T12:11:10.246Z,12.20
2023-04-07T12:13:38.208Z,11.90
2023-04-07T12:16:06.397Z,12.10
2023-04-07T12:18:34.319Z,12.10
2023-04-07T12:21:02.563Z,12.10
2023-04-07T12:23:30.511Z,12.00
2023-04-07T12:25:58.314Z,12.10
2023-04-07T12:28:27.674Z,11.90
2023-04-07T12:30:55.702Z,12.10
2023-04-07T12:33:23.892Z,12.00
2023-04-07T12:35:51.969Z,12.10
2023-04-07T12:38:19.827Z,12.20
2023-04-07T12:40:47.608Z,12.10
2023-04-07T12:43:15.386Z,12.00
2023-04-07T12:45:44.495Z,12.00
2023-04-07T12:48:12.688Z,11.50
2023-04-07T12:50:40.463Z,11.70
2023-04-07T12:53:09.282Z,11.60
2023-04-07T12:55:37.563Z,11.70
2023-04-07T12:58:05.712Z,11.70
2023-04-07T13:00:33.469Z,11.80
2023-04-07T13:03:03.529Z,11.60
2023-04-07T13:05:31.433Z,11.60
2023-04-07T13:07:59.686Z,11.70
2023-04-07T13:10:27.546Z,11.60
2023-04-07T13:12:55.539Z,11.70
2023-04-07T13:15:23.328Z,11.60
2023-04-07T13:17:51.280Z,11.60
2023-04-07T13:20:21.006Z,11.60
2023-04-07T13:22:57.608Z,11.70
2023-04-07T13:25:33.696Z,11.60
2023-04-07T13:28:02.628Z,11.60
2023-04-07T13:30:30.424Z,11.50
2023-04-07T13:32:58.455Z,11.40
2023-04-07T13:35:28.542Z,11.50
2023-04-07T13:37:56.314Z,11.70
2023-04-07T13:40:24.071Z,11.70
2023-04-07T13:42:51.880Z,11.70
2023-04-07T13:45:19.731Z,11.60
2023-04-07T13:47:47.547Z,11.60
2023-04-07T13:50:15.824Z,11.50
2023-04-07T13:52:45.139Z,11.60
2023-04-07T13:55:12.948Z,11.40
2023-04-07T13:57:40.745Z,11.30
2023-04-07T14:00:09.681Z,11.30
2023-04-07T14:02:37.499Z,11.50
2023-04-07T14:05:05.913Z,11.60
2023-04-07T14:07:34.513Z,11.40
2023-04-07T14:10:10.893Z,11.30
2023-04-07T14:12:38.710Z,11.30
2023-04-07T14:15:07.546Z,11.30
2023-04-07T14:17:35.620Z,11.30
2023-04-07T14:20:03.964Z,11.30
2023-04-07T14:22:31.743Z,11.50
2023-04-07T14:24:59.693Z,11.40
2023-04-07T14:27:31.252Z,11.40
2023-04-07T14:30:00.167Z,11.50
2023-04-07T14:32:29.419Z,11.40
2023-04-07T14:34:59.116Z,11.40
2023-04-07T14:37:28.498Z,11.60
2023-04-07T14:42:29.607Z,11.30
2023-04-07T14:44:57.896Z,11.30
2023-04-07T14:47:26.405Z,11.20
2023-04-07T14:49:54.349Z,11.10
2023-04-07T14:52:22.639Z,11.20
2023-04-07T14:54:50.491Z,11.20
2023-04-07T14:57:18.285Z,11.00
2023-04-07T14:59:48.348Z,11.00
2023-04-07T15:02:16.329Z,11.00
2023-04-07T15:04:44.322Z,11.10
2023-04-07T15:07:12.364Z,11.10
2023-04-07T15:09:40.401Z,11.20
2023-04-07T15:12:08.174Z,11.20
2023-04-07T15:14:35.964Z,11.00
2023-04-07T15:17:05.038Z,10.80
2023-04-07T15:19:32.846Z,10.90
2023-04-07T15:22:00.612Z,10.90
2023-04-07T15:24:28.386Z,10.80
2023-04-07T15:26:56.130Z,10.90
2023-04-07T15:29:23.897Z,10.70
2023-04-07T15:31:51.945Z,10.70
2023-04-07T15:34:21.093Z,10.60
2023-04-07T15:36:48.862Z,10.60
2023-04-07T15:39:16.895Z,10.70
2023-04-07T15:41:44.669Z,10.80
2023-04-07T15:44:12.450Z,10.70
2023-04-07T15:46:40.358Z,10.70
2023-04-07T15:49:08.193Z,10.80
2023-04-07T15:51:37.292Z,10.90
2023-04-07T15:54:05.100Z,10.90
2023-04-07T15:56:32.862Z,10.90
2023-04-07T15:59:00.806Z,10.60
2023-04-07T16:01:28.876Z,10.80
2023-04-07T16:03:56.815Z,10.70
2023-04-07T16:06:24.641Z,10.80
2023-04-07T16:08:53.717Z,10.80
2023-04-07T16:11:22.191Z,10.80
2023-04-07T16:13:50.208Z,10.90
2023-04-07T16:16:19.055Z,10.90
2023-04-07T16:18:47.919Z,10.90
2023-04-07T16:21:15.860Z,10.80
2023-04-07T16:23:43.789Z,10.90
2023-04-07T16:26:12.965Z,10.80
2023-04-07T16:28:41.865Z,10.70
2023-04-07T16:31:11.423Z,10.70
2023-04-07T16:33:39.197Z,10.70
2023-04-07T16:36:07.688Z,10.60
2023-04-07T16:38:35.543Z,10.60
2023-04-07T16:41:04.861Z,10.50
2023-04-07T16:43:34.235Z,10.70
2023-04-07T16:46:02.106Z,10.70
2023-04-07T16:48:30.237Z,10.60
2023-04-07T16:50:58.030Z,10.70
2023-04-07T16:53:25.973Z,10.60
2023-04-07T16:55:53.729Z,10.50
2023-04-07T16:58:21.521Z,10.40
2023-04-07T17:00:50.609Z,10.50
2023-04-07T17:03:18.413Z,10.40
2023-04-07T17:05:47.124Z,10.30
2023-04-07T17:08:14.863Z,10.30
2023-04-07T17:10:42.636Z,10.30
2023-04-07T17:13:10.424Z,10.20
2023-04-07T17:15:38.743Z,9.70
2023-04-07T17:18:07.953Z,9.70
2023-04-07T17:20:35.781Z,9.40
2023-04-07T17:23:03.595Z,9.30
2023-04-07T17:25:31.354Z,9.30
2023-04-07T17:27:59.141Z,9.20
2023-04-07T17:30:26.997Z,9.10
2023-04-07T17:32:54.842Z,9.10
2023-04-07T17:35:25.041Z,8.90
2023-04-07T17:37:53.029Z,8.90
2023-04-07T17:40:21.106Z,8.90
2023-04-07T17:42:48.860Z,8.80
2023-04-07T17:45:17.758Z,8.80
2023-04-07T17:47:46.163Z,9.00
2023-04-07T17:50:14.504Z,8.80
2023-04-07T17:52:43.630Z,8.70
2023-04-07T17:55:12.397Z,8.60
2023-04-07T17:57:42.052Z,8.70
2023-04-07T18:00:10.390Z,8.60
2023-04-07T18:02:40.126Z,8.60
2023-04-07T18:05:08.746Z,8.80
2023-04-07T18:07:36.618Z,8.50
2023-04-07T18:10:06.711Z,8.40
2023-04-07T18:12:34.704Z,8.40
2023-04-07T18:15:02.514Z,8.50
2023-04-07T18:17:30.328Z,8.50
2023-04-07T18:19:58.113Z,8.60
2023-04-07T18:22:27.134Z,8.50
2023-04-07T18:24:54.936Z,8.40
2023-04-07T18:27:25.286Z,8.50
2023-04-07T18:29:53.051Z,8.60
2023-04-07T18:32:20.827Z,8.50
2023-04-07T18:34:48.764Z,8.60
2023-04-07T18:37:16.627Z,8.50
2023-04-07T18:39:44.846Z,8.50
2023-04-07T18:42:12.641Z,8.50
2023-04-07T18:44:41.702Z,8.60
2023-04-07T18:47:09.500Z,8.50
2023-04-07T18:49:37.266Z,8.60
2023-04-07T18:52:05.614Z,8.60
2023-04-07T18:54:33.353Z,8.80
2023-04-07T18:57:01.343Z,8.70
2023-04-07T18:59:29.090Z,8.70
2023-04-07T19:01:58.269Z,8.80
2023-04-07T19:04:26.212Z,8.80
2023-04-07T19:06:53.972Z,8.70
2023-04-07T19:09:21.790Z,8.60
2023-04-07T19:11:49.544Z,8.60
2023-04-07T19:14:17.300Z,8.60
2023-04-07T19:16:45.755Z,8.40
2023-04-07T19:19:14.903Z,8.40
2023-04-07T19:21:42.691Z,8.40
2023-04-07T19:24:10.645Z,8.40
2023-04-07T19:26:38.417Z,8.30
2023-04-07T19:29:07.065Z,8.10
2023-04-07T19:31:35.321Z,8.20
2023-04-07T19:34:03.129Z,8.10
2023-04-07T19:36:32.813Z,8.00
2023-04-07T19:39:00.619Z,8.10
2023-04-07T19:41:29.298Z,8.10
2023-04-07T19:43:57.146Z,7.90
2023-04-07T19:46:24.948Z,8.00
2023-04-07T19:48:52.764Z,8.00
2023-04-07T19:51:20.900Z,8.10
2023-04-07T19:53:50.197Z,8.20
2023-04-07T19:56:18.154Z,8.10
2023-04-07T19:58:45.949Z,8.10
2023-04-07T20:01:17.765Z,7.90
2023-04-07T20:03:46.681Z,7.80
2023-04-07T20:06:14.632Z,7.80
2023-04-07T20:08:42.486Z,7.70
2023-04-07T20:11:13.127Z,7.80
2023-04-07T20:13:41.636Z,7.80
2023-04-07T20:16:09.806Z,7.80
2023-04-07T20:18:37.723Z,7.90
2023-04-07T20:21:06.792Z,7.80
2023-04-07T20:23:34.663Z,7.80
2023-04-07T20:26:02.609Z,7.90
2023-04-07T20:28:31.757Z,7.90
2023-04-07T20:31:00.003Z,7.90
2023-04-07T20:33:27.815Z,7.90
2023-04-07T20:35:55.622Z,7.80
2023-04-07T20:38:23.431Z,7.70
2023-04-07T20:40:51.201Z,7.70
2023-04-07T20:43:21.840Z,7.80
2023-04-07T20:45:52.066Z,7.80
2023-04-07T20:48:23.696Z,7.80
2023-04-07T20:50:51.838Z,7.70
2023-04-07T20:53:19.695Z,7.70
2023-04-07T20:55:47.562Z,7.60
2023-04-07T20:58:16.593Z,7.60
2023-04-07T21:00:44.342Z,7.60
2023-04-07T21:03:13.619Z,7.60
2023-04-07T21:05:41.579Z,7.50
2023-04-07T21:08:09.327Z,7.60
2023-04-07T21:10:37.100Z,7.60
2023-04-07T21:13:04.858Z,7.50
2023-04-07T21:15:32.686Z,7.40
2023-04-07T21:18:00.486Z,7.40
2023-04-07T21:20:29.627Z,7.40
2023-04-07T21:22:57.401Z,7.40
2023-04-07T21:25:25.410Z,7.40
2023-04-07T21:27:53.190Z,7.40
2023-04-07T21:30:22.453Z,7.40
2023-04-07T21:32:50.345Z,7.40
2023-04-07T21:35:19.644Z,7.30
2023-04-07T21:37:48.832Z,7.40
2023-04-07T21:40:16.673Z,7.30
2023-04-07T21:42:44.407Z,7.20
2023-04-07T21:45:12.791Z,7.30
2023-04-07T21:47:40.651Z,7.10
2023-04-07T21:50:09.154Z,7.10
2023-04-07T21:52:36.934Z,7.20
2023-04-07T21:55:07.105Z,7.30
2023-04-07T21:57:35.087Z,7.30
2023-04-07T22:00:02.912Z,7.10
2023-04-07T22:02:30.914Z,7.10
2023-04-07T22:04:58.905Z,7.30
2023-04-07T22:07:26.690Z,7.20
2023-04-07T22:09:54.467Z,7.00
2023-04-07T22:12:23.567Z,7.00
2023-04-07T22:14:51.347Z,7.00
2023-04-07T22:17:19.097Z,7.10
2023-04-07T22:19:46.853Z,7.00
2023-04-07T22:22:14.619Z,6.90
2023-04-07T22:24:42.381Z,6.90
2023-04-07T22:27:10.372Z,6.90
2023-04-07T22:29:39.480Z,6.80
2023-04-07T22:32:07.339Z,6.80
2023-04-07T22:34:35.097Z,6.80
2023-04-07T22:37:02.860Z,6.80
2023-04-07T22:39:30.869Z,6.80
2023-04-07T22:41:58.629Z,6.80
2023-04-07T22:44:26.407Z,6.70
2023-04-07T22:46:56.180Z,6.70
2023-04-07T22:49:23.961Z,6.80
2023-04-07T22:51:51.763Z,6.80
2023-04-07T22:54:19.531Z,6.80
2023-04-07T22:56:47.310Z,6.80
2023-04-07T22:59:15.333Z,6.70
2023-04-07T23:01:43.185Z,6.60
2023-04-07T23:04:12.351Z,6.70
2023-04-07T23:06:43.350Z,6.60
2023-04-07T23:09:11.573Z,6.70
2023-04-07T23:11:39.344Z,6.60
2023-04-07T23:14:07.282Z,6.80
2023-04-07T23:16:35.457Z,6.90
2023-04-07T23:19:03.234Z,6.60
2023-04-07T23:21:32.375Z,6.70
2023-04-07T23:24:00.573Z,7.00
2023-04-07T23:26:28.342Z,6.70
2023-04-07T23:28:56.090Z,6.80
2023-04-07T23:31:23.902Z,6.90
2023-04-07T23:33:51.711Z,6.70
2023-04-07T23:36:19.537Z,6.60
2023-04-07T23:38:48.936Z,6.70
2023-04-07T23:41:16.915Z,6.80
2023-04-07T23:43:44.665Z,6.70
2023-04-07T23:46:12.499Z,6.80
2023-04-07T23:48:40.886Z,6.70
2023-04-07T23:51:08.635Z,6.80
2023-04-07T23:53:36.369Z,6.80
2023-04-07T23:56:05.841Z,6.80
2023-04-07T23:58:33.598Z,6.60
